createdAt,value
2022-12-14T00:01:22.004Z,27.10
2022-12-14T00:03:49.588Z,22.47
2022-12-14T00:06:18.867Z,21.00
2022-12-14T00:08:48.855Z,23.60
2022-12-14T00:11:15.761Z,31.90
2022-12-14T00:13:43.363Z,22.20
2022-12-14T00:16:14.328Z,22.77
2022-12-14T00:18:41.656Z,20.30
2022-12-14T00:21:13.312Z,21.67
2022-12-14T00:23:42.157Z,21.37
2022-12-14T00:26:23.656Z,24.33
2022-12-14T00:28:52.326Z,18.10
2022-12-14T00:31:19.742Z,22.07
2022-12-14T00:33:46.643Z,16.80
2022-12-14T00:36:14.121Z,24.47
2022-12-14T00:38:41.277Z,18.83
2022-12-14T00:41:08.734Z,18.80
2022-12-14T00:43:35.509Z,17.00
2022-12-14T00:46:02.277Z,17.20
2022-12-14T01:02:08.818Z,13.97
2022-12-14T01:04:35.624Z,23.93
2022-12-14T01:07:02.155Z,24.53
2022-12-14T01:09:29.770Z,20.57
2022-12-14T01:11:56.918Z,22.40
2022-12-14T01:14:24.150Z,28.10
2022-12-14T01:16:51.264Z,20.20
2022-12-14T01:19:17.871Z,21.83
2022-12-14T01:21:44.701Z,26.07
2022-12-14T01:24:11.323Z,22.47
2022-12-14T01:26:39.493Z,21.53
2022-12-14T01:29:07.835Z,20.50
2022-12-14T01:31:37.253Z,19.17
2022-12-14T01:34:03.947Z,20.00
2022-12-14T01:36:33.383Z,18.70
2022-12-14T01:39:04.001Z,19.93
2022-12-14T01:41:37.240Z,17.43
2022-12-14T01:44:10.525Z,24.50
2022-12-14T01:46:52.444Z,20.13
2022-12-14T01:49:24.868Z,21.17
2022-12-14T01:52:15.512Z,25.00
2022-12-14T01:55:04.929Z,18.60
2022-12-14T01:57:39.004Z,18.13
2022-12-14T02:00:09.175Z,17.90
2022-12-14T02:02:39.680Z,21.00
2022-12-14T02:05:09.241Z,14.87
2022-12-14T02:07:36.175Z,19.90
2022-12-14T02:10:06.079Z,13.47
2022-12-14T02:12:58.941Z,17.63
2022-12-14T02:15:26.547Z,20.43
2022-12-14T02:17:53.108Z,17.93
2022-12-14T02:20:22.491Z,18.17
2022-12-14T02:23:13.178Z,17.23
2022-12-14T02:25:40.306Z,19.00
2022-12-14T02:28:34.923Z,16.53
2022-12-14T02:31:26.831Z,14.40
2022-12-14T02:34:17.485Z,15.73
2022-12-14T02:37:03.105Z,13.57
2022-12-14T02:39:52.016Z,14.00
2022-12-14T02:42:32.021Z,16.90
2022-12-14T02:45:42.531Z,17.60
2022-12-14T02:48:12.404Z,18.70
2022-12-14T02:51:06.323Z,13.40
2022-12-14T02:53:46.057Z,13.47
2022-12-14T02:56:18.948Z,17.63
2022-12-14T02:58:50.454Z,13.90
2022-12-14T03:01:22.632Z,20.13
2022-12-14T03:03:49.905Z,18.50
2022-12-14T03:06:27.861Z,14.47
2022-12-14T03:09:02.444Z,12.37
2022-12-14T03:11:52.471Z,13.97
2022-12-14T03:14:25.735Z,19.60
2022-12-14T03:16:53.979Z,15.97
2022-12-14T03:19:26.435Z,14.00
2022-12-14T03:22:05.905Z,16.87
2022-12-14T03:24:42.053Z,13.70
2022-12-14T03:27:18.516Z,19.43
2022-12-14T03:29:50.659Z,14.70
2022-12-14T03:32:21.949Z,10.83
2022-12-14T03:35:00.318Z,17.53
2022-12-14T03:37:50.063Z,12.60
2022-12-14T03:40:24.540Z,9.57
2022-12-14T03:43:26.052Z,11.67
2022-12-14T03:46:11.606Z,9.60
2022-12-14T03:49:08.306Z,12.53
2022-12-14T03:52:05.223Z,10.60
2022-12-14T03:54:49.719Z,9.67
2022-12-14T03:57:32.527Z,10.80
2022-12-14T04:00:10.759Z,9.77
2022-12-14T04:02:49.547Z,13.70
2022-12-14T04:05:52.251Z,14.43
2022-12-14T04:08:51.383Z,12.60
2022-12-14T04:11:38.864Z,16.53
2022-12-14T04:14:49.714Z,14.13
2022-12-14T04:17:42.499Z,13.17
2022-12-14T04:20:24.474Z,16.80
2022-12-14T04:23:09.164Z,16.20
2022-12-14T04:26:00.894Z,16.50
2022-12-14T04:29:00.869Z,19.20
2022-12-14T04:31:30.823Z,12.47
2022-12-14T04:34:02.222Z,12.93
2022-12-14T04:36:39.622Z,18.10
2022-12-14T04:39:13.436Z,16.73
2022-12-14T04:41:49.596Z,13.27
2022-12-14T04:44:24.932Z,17.23
2022-12-14T04:46:54.177Z,12.30
2022-12-14T04:49:27.715Z,17.00
2022-12-14T04:52:07.717Z,21.33
2022-12-14T04:54:48.511Z,13.03
2022-12-14T04:57:42.728Z,16.50
2022-12-14T05:00:10.710Z,15.00
2022-12-14T05:02:46.316Z,14.17
2022-12-14T05:05:30.379Z,18.43
2022-12-14T05:08:28.199Z,12.60
2022-12-14T05:11:50.130Z,17.30
2022-12-14T05:14:11.392Z,12.10
2022-12-14T05:16:38.561Z,13.87
2022-12-14T05:19:09.783Z,11.20
2022-12-14T05:21:49.454Z,10.50
2022-12-14T05:24:17.340Z,12.50
2022-12-14T05:26:44.532Z,14.10
2022-12-14T05:29:12.061Z,16.13
2022-12-14T05:31:38.636Z,13.23
2022-12-14T05:34:05.231Z,14.50
2022-12-14T05:36:31.888Z,11.27
2022-12-14T05:38:58.919Z,16.60
2022-12-14T05:41:25.559Z,13.53
2022-12-14T05:43:52.280Z,16.53
2022-12-14T05:46:18.947Z,16.20
2022-12-14T05:48:49.202Z,15.23
2022-12-14T05:51:16.807Z,14.57
2022-12-14T05:53:43.528Z,18.57
2022-12-14T05:56:11.792Z,35.33
2022-12-14T05:58:38.987Z,15.47
2022-12-14T06:01:12.649Z,12.90
2022-12-14T06:03:42.369Z,18.80
2022-12-14T06:06:11.939Z,14.07
2022-12-14T06:08:41.348Z,17.37
2022-12-14T06:11:11.329Z,12.80
2022-12-14T06:13:39.112Z,15.23
2022-12-14T06:16:23.948Z,16.10
2022-12-14T06:18:56.155Z,20.33
2022-12-14T06:21:25.963Z,17.07
2022-12-14T06:23:54.211Z,14.73
2022-12-14T06:26:21.045Z,20.33
2022-12-14T06:28:48.041Z,23.20
2022-12-14T06:31:21.756Z,15.37
2022-12-14T06:33:48.723Z,24.13
2022-12-14T06:36:21.123Z,22.83
2022-12-14T06:38:47.789Z,24.57
2022-12-14T06:41:14.521Z,28.00
2022-12-14T06:43:41.150Z,20.20
2022-12-14T06:46:14.769Z,13.27
2022-12-14T06:48:42.945Z,14.93
2022-12-14T06:51:09.790Z,17.77
2022-12-14T06:53:36.513Z,18.50
2022-12-14T06:56:07.226Z,19.93
2022-12-14T06:58:35.088Z,22.10
2022-12-14T07:01:04.069Z,15.63
2022-12-14T07:03:31.585Z,14.27
2022-12-14T07:05:59.322Z,16.83
2022-12-14T07:08:26.742Z,20.07
2022-12-14T07:10:56.358Z,16.60
2022-12-14T07:13:27.621Z,12.57
2022-12-14T07:15:57.219Z,18.87
2022-12-14T07:18:25.168Z,14.03
2022-12-14T07:21:12.440Z,20.47
2022-12-14T07:23:40.800Z,17.83
2022-12-14T07:26:12.712Z,16.73
2022-12-14T07:28:40.811Z,21.87
2022-12-14T07:31:13.006Z,13.30
2022-12-14T07:33:40.268Z,15.83
2022-12-14T07:36:12.591Z,14.50
2022-12-14T07:38:40.646Z,17.33
2022-12-14T07:41:12.473Z,18.23
2022-12-14T07:43:40.588Z,16.77
2022-12-14T07:46:10.920Z,23.33
2022-12-14T07:48:38.543Z,11.40
2022-12-14T07:51:08.116Z,16.13
2022-12-14T07:53:37.034Z,17.13
2022-12-14T07:56:06.959Z,12.10
2022-12-14T07:58:35.134Z,16.93
2022-12-14T08:01:15.875Z,18.60
2022-12-14T08:03:46.735Z,14.73
2022-12-14T08:06:15.179Z,13.37
2022-12-14T08:08:42.034Z,19.00
2022-12-14T08:11:09.628Z,18.30
2022-12-14T08:13:38.789Z,14.60
2022-12-14T08:16:08.233Z,10.50
2022-12-14T08:18:40.502Z,12.60
2022-12-14T08:21:08.576Z,19.93
2022-12-14T08:23:36.338Z,23.80
2022-12-14T08:26:04.908Z,9.83
2022-12-14T08:28:35.015Z,14.63
2022-12-14T08:31:11.273Z,15.53
2022-12-14T08:33:42.943Z,10.73
2022-12-14T08:36:11.303Z,12.50
2022-12-14T08:38:39.307Z,13.43
2022-12-14T08:41:09.279Z,9.47
2022-12-14T08:43:37.060Z,14.77
2022-12-14T08:46:05.600Z,13.87
2022-12-14T08:48:32.426Z,11.73
2022-12-14T08:51:06.910Z,14.23
2022-12-14T08:53:34.346Z,14.97
2022-12-14T08:56:12.751Z,16.30
2022-12-14T08:58:40.765Z,16.43
2022-12-14T09:01:16.132Z,15.60
2022-12-14T09:03:46.957Z,12.53
2022-12-14T09:06:16.326Z,13.03
2022-12-14T09:08:42.971Z,16.40
2022-12-14T09:11:15.518Z,14.13
2022-12-14T09:13:43.562Z,11.80
2022-12-14T09:16:19.168Z,15.00
2022-12-14T09:18:48.073Z,15.50
2022-12-14T09:21:15.746Z,14.90
2022-12-14T09:23:42.529Z,15.00
2022-12-14T09:26:15.436Z,15.40
2022-12-14T09:28:45.688Z,25.13
2022-12-14T09:31:15.038Z,16.23
2022-12-14T09:33:42.374Z,13.03
2022-12-14T09:36:13.516Z,17.03
2022-12-14T09:38:48.764Z,16.80
2022-12-14T09:41:36.093Z,13.53
2022-12-14T09:44:05.733Z,15.87
2022-12-14T09:46:56.514Z,14.73
2022-12-14T09:49:28.710Z,21.63
2022-12-14T09:51:58.953Z,11.43
2022-12-14T09:54:29.223Z,12.17
2022-12-14T09:56:59.652Z,17.03
2022-12-14T09:59:29.311Z,11.90
2022-12-14T10:05:12.090Z,22.83
2022-12-14T10:07:51.741Z,17.60
2022-12-14T10:10:28.858Z,14.20
2022-12-14T10:13:17.234Z,16.57
2022-12-14T10:16:16.470Z,17.80
2022-12-14T10:18:59.923Z,11.07
2022-12-14T10:21:38.211Z,13.50
2022-12-14T10:24:07.477Z,17.10
2022-12-14T10:26:44.210Z,30.33
2022-12-14T10:29:19.142Z,11.60
2022-12-14T10:32:32.595Z,12.10
2022-12-14T10:35:11.955Z,12.47
2022-12-14T10:37:43.497Z,11.40
2022-12-14T10:40:16.433Z,9.30
2022-12-14T10:42:55.868Z,10.30
2022-12-14T10:45:43.671Z,9.30
2022-12-14T10:48:34.778Z,12.83
2022-12-14T10:51:07.284Z,12.30
2022-12-14T10:53:58.419Z,15.53
2022-12-14T10:56:35.492Z,12.23
2022-12-14T10:59:36.732Z,24.53
2022-12-14T11:02:17.403Z,16.20
2022-12-14T11:04:53.836Z,13.87
2022-12-14T11:07:33.491Z,10.93
2022-12-14T11:10:21.610Z,15.43
2022-12-14T11:13:06.974Z,9.73
2022-12-14T11:15:40.640Z,9.73
2022-12-14T11:18:16.334Z,10.93
2022-12-14T11:20:59.919Z,8.90
2022-12-14T11:23:41.898Z,8.60
2022-12-14T11:26:16.849Z,7.13
2022-12-14T11:28:50.626Z,8.57
2022-12-14T11:31:24.608Z,8.27
2022-12-14T11:33:54.519Z,11.17
2022-12-14T11:36:38.047Z,7.13
2022-12-14T11:39:16.942Z,8.57
2022-12-14T11:41:46.730Z,7.10
2022-12-14T11:44:16.295Z,8.40
2022-12-14T11:46:47.000Z,10.73
2022-12-14T11:49:23.548Z,6.80
2022-12-14T11:52:19.119Z,4.90
2022-12-14T11:54:49.888Z,8.40
2022-12-14T11:57:25.076Z,8.00
2022-12-14T11:59:53.344Z,6.13
2022-12-14T12:02:27.751Z,4.83
2022-12-14T12:05:11.214Z,7.20
2022-12-14T12:07:43.216Z,4.87
2022-12-14T12:10:09.720Z,5.67
2022-12-14T12:12:36.398Z,5.70
2022-12-14T12:15:03.704Z,5.20
2022-12-14T12:17:43.010Z,5.50
2022-12-14T12:20:20.510Z,5.27
2022-12-14T12:22:51.985Z,4.80
2022-12-14T12:25:33.602Z,5.67
2022-12-14T12:28:10.122Z,9.47
2022-12-14T12:30:42.697Z,12.27
2022-12-14T12:33:26.831Z,4.53
2022-12-14T12:35:56.204Z,5.67
2022-12-14T12:38:49.955Z,10.03
2022-12-14T12:41:29.819Z,5.93
2022-12-14T12:44:25.242Z,8.50
2022-12-14T12:47:23.949Z,6.73
2022-12-14T12:49:48.148Z,5.90
2022-12-14T12:52:21.659Z,6.70
2022-12-14T12:55:16.995Z,5.40
2022-12-14T12:57:47.299Z,7.13
2022-12-14T13:00:25.046Z,6.70
2022-12-14T13:02:57.747Z,7.80
2022-12-14T13:05:46.267Z,4.27
2022-12-14T13:08:28.563Z,4.77
2022-12-14T13:14:16.047Z,7.00
2022-12-14T13:16:45.403Z,9.10
2022-12-14T13:19:49.932Z,5.00
2022-12-14T13:22:15.169Z,5.10
2022-12-14T13:24:45.867Z,6.60
2022-12-14T13:27:35.171Z,7.03
2022-12-14T13:30:23.805Z,9.07
2022-12-14T13:33:18.506Z,5.43
2022-12-14T13:36:20.836Z,8.43
2022-12-14T13:39:21.340Z,6.40
2022-12-14T13:41:59.627Z,4.93
2022-12-14T13:44:54.086Z,5.70
2022-12-14T13:47:25.207Z,8.53
2022-12-14T13:50:34.416Z,5.17
2022-12-14T13:52:48.977Z,5.83
2022-12-14T13:55:25.626Z,6.70
2022-12-14T13:57:53.365Z,6.80
2022-12-14T14:01:12.338Z,7.80
2022-12-14T14:03:39.032Z,4.47
2022-12-14T14:06:11.944Z,11.43
2022-12-14T14:08:49.595Z,10.80
2022-12-14T14:11:38.505Z,8.97
2022-12-14T14:14:31.834Z,6.63
2022-12-14T14:17:15.524Z,6.20
2022-12-14T14:19:42.712Z,9.60
2022-12-14T14:22:24.964Z,9.00
2022-12-14T14:24:57.105Z,5.50
2022-12-14T14:28:01.653Z,8.13
2022-12-14T14:30:28.142Z,7.70
2022-12-14T14:33:07.508Z,14.37
2022-12-14T14:35:42.764Z,14.80
2022-12-14T14:38:31.285Z,15.20
2022-12-14T14:41:17.795Z,11.40
2022-12-14T14:43:54.117Z,12.90
2022-12-14T14:46:34.394Z,10.40
2022-12-14T14:49:01.163Z,7.20
2022-12-14T14:51:35.379Z,8.00
2022-12-14T14:55:11.007Z,6.40
2022-12-14T14:57:54.560Z,10.00
2022-12-14T15:00:23.170Z,9.30
2022-12-14T15:02:53.321Z,8.43
2022-12-14T15:05:43.449Z,10.13
2022-12-14T15:08:34.121Z,6.17
2022-12-14T15:11:05.627Z,5.97
2022-12-14T15:13:53.893Z,8.13
2022-12-14T15:16:33.188Z,8.20
2022-12-14T15:19:33.405Z,8.87
2022-12-14T15:22:04.798Z,10.50
2022-12-14T15:24:38.613Z,7.70
2022-12-14T15:27:27.198Z,7.03
2022-12-14T15:30:12.288Z,9.77
2022-12-14T15:32:48.053Z,8.97
2022-12-14T15:35:18.062Z,8.80
2022-12-14T15:37:54.718Z,10.87
2022-12-14T15:40:27.282Z,7.47
2022-12-14T15:43:15.119Z,10.13
2022-12-14T15:45:44.426Z,13.33
2022-12-14T15:48:14.845Z,12.00
2022-12-14T15:50:46.027Z,9.70
2022-12-14T15:53:21.834Z,12.17
2022-12-14T15:56:00.173Z,10.80
2022-12-14T15:58:37.424Z,8.53
2022-12-14T16:01:13.241Z,12.33
2022-12-14T16:03:44.968Z,12.70
2022-12-14T16:06:14.149Z,16.83
2022-12-14T16:09:02.313Z,10.97
2022-12-14T16:11:37.253Z,8.87
2022-12-14T16:14:25.076Z,10.80
2022-12-14T16:16:52.754Z,12.50
2022-12-14T16:19:27.742Z,12.67
2022-12-14T16:22:22.619Z,11.97
2022-12-14T16:25:07.876Z,11.57
2022-12-14T16:27:49.934Z,11.97
2022-12-14T16:30:26.348Z,9.97
2022-12-14T16:33:17.941Z,12.37
2022-12-14T16:35:47.408Z,15.60
2022-12-14T16:38:16.875Z,13.67
2022-12-14T16:40:57.368Z,12.00
2022-12-14T16:43:38.772Z,10.03
2022-12-14T16:46:10.541Z,15.47
2022-12-14T16:48:50.367Z,10.50
2022-12-14T16:51:19.947Z,15.97
2022-12-14T16:53:54.955Z,15.63
2022-12-14T16:56:24.575Z,11.00
2022-12-14T16:59:05.660Z,12.20
2022-12-14T17:01:41.417Z,11.70
2022-12-14T17:04:11.085Z,13.60
2022-12-14T17:06:55.305Z,11.53
2022-12-14T17:09:24.570Z,14.77
2022-12-14T17:11:54.772Z,12.40
2022-12-14T17:14:21.668Z,11.03
2022-12-14T17:16:52.651Z,16.53
2022-12-14T17:19:26.561Z,14.77
2022-12-14T17:21:53.146Z,32.00
2022-12-14T17:24:21.675Z,24.57
2022-12-14T17:26:51.111Z,26.50
2022-12-14T17:29:27.281Z,21.53
2022-12-14T17:31:57.768Z,21.87
2022-12-14T17:34:25.017Z,15.77
2022-12-14T17:36:52.103Z,15.67
2022-12-14T17:39:20.245Z,22.47
2022-12-14T17:41:47.842Z,19.90
2022-12-14T17:44:15.681Z,29.00
2022-12-14T17:46:43.866Z,37.90
2022-12-14T17:49:13.322Z,60.37
2022-12-14T17:51:43.445Z,67.07
2022-12-14T17:54:16.344Z,48.13
2022-12-14T17:56:44.217Z,42.70
2022-12-14T17:59:11.011Z,41.03
2022-12-14T18:01:38.141Z,42.63
2022-12-14T18:04:04.971Z,43.23
2022-12-14T18:06:31.578Z,39.37
2022-12-14T18:08:58.172Z,33.07
2022-12-14T18:11:27.045Z,31.23
2022-12-14T18:13:59.278Z,36.20
2022-12-14T18:16:28.796Z,41.70
2022-12-14T18:18:56.120Z,42.60
2022-12-14T18:21:26.188Z,43.30
2022-12-14T18:23:52.835Z,49.27
2022-12-14T18:26:21.471Z,50.20
2022-12-14T18:28:51.023Z,49.40
2022-12-14T18:31:26.265Z,51.63
2022-12-14T18:33:53.951Z,39.33
2022-12-14T18:36:21.726Z,43.57
2022-12-14T18:38:49.643Z,37.57
2022-12-14T18:41:20.918Z,37.70
2022-12-14T18:43:48.065Z,34.27
2022-12-14T18:46:14.917Z,36.50
2022-12-14T18:48:42.838Z,37.80
2022-12-14T18:51:13.891Z,36.83
2022-12-14T18:53:42.198Z,38.53
2022-12-14T18:56:11.541Z,39.30
2022-12-14T18:58:41.716Z,29.60
2022-12-14T19:01:14.852Z,25.07
2022-12-14T19:03:42.598Z,37.23
2022-12-14T19:09:02.098Z,29.83
2022-12-14T19:11:32.320Z,30.17
2022-12-14T19:14:00.078Z,43.47
2022-12-14T19:16:26.798Z,35.40
2022-12-14T19:18:53.473Z,35.47
2022-12-14T19:21:20.732Z,37.20
2022-12-14T19:23:47.355Z,35.50
2022-12-14T19:26:14.993Z,41.07
2022-12-14T19:28:41.589Z,36.73
2022-12-14T19:31:11.067Z,33.37
2022-12-14T19:33:38.005Z,32.90
2022-12-14T19:36:06.934Z,37.57
2022-12-14T19:38:37.065Z,36.43
2022-12-14T19:41:08.385Z,36.60
2022-12-14T19:43:35.446Z,37.67
2022-12-14T19:46:10.085Z,36.97
2022-12-14T19:48:37.977Z,37.60
2022-12-14T19:51:07.822Z,37.33
2022-12-14T19:53:35.157Z,41.33
2022-12-14T19:56:03.098Z,35.30
2022-12-14T19:58:30.227Z,29.70
2022-12-14T20:00:58.325Z,34.83
2022-12-14T20:03:27.112Z,33.20
2022-12-14T20:06:00.617Z,36.80
2022-12-14T20:08:30.069Z,30.63
2022-12-14T20:10:57.767Z,24.33
2022-12-14T20:13:26.810Z,24.10
2022-12-14T20:15:58.202Z,27.80
2022-12-14T20:18:26.092Z,19.93
2022-12-14T20:20:53.234Z,24.90
2022-12-14T20:23:24.337Z,28.30
2022-12-14T20:25:51.204Z,20.33
2022-12-14T20:28:17.751Z,25.63
2022-12-14T20:30:47.255Z,33.10
2022-12-14T20:33:14.273Z,28.73
2022-12-14T20:35:41.334Z,29.67
2022-12-14T20:38:08.036Z,28.97
2022-12-14T20:40:38.551Z,24.60
2022-12-14T20:43:07.252Z,29.93
2022-12-14T20:45:40.192Z,22.93
2022-12-14T20:48:08.444Z,22.87
2022-12-14T20:50:36.914Z,24.30
2022-12-14T20:53:03.807Z,24.30
2022-12-14T20:55:30.715Z,25.23
2022-12-14T20:57:57.276Z,21.97
2022-12-14T21:00:24.221Z,23.17
2022-12-14T21:02:51.552Z,23.40
2022-12-14T21:05:18.328Z,22.87
2022-12-14T21:07:44.868Z,24.53
2022-12-14T21:10:11.479Z,26.60
2022-12-14T21:12:38.153Z,26.10
2022-12-14T21:15:05.378Z,25.00
2022-12-14T21:17:32.265Z,36.43
2022-12-14T21:19:59.250Z,28.87
2022-12-14T21:22:30.554Z,37.33
2022-12-14T21:25:06.795Z,52.20
2022-12-14T21:27:38.003Z,54.37
2022-12-14T21:30:09.050Z,55.83
2022-12-14T21:32:39.129Z,38.53
2022-12-14T21:35:06.508Z,40.37
2022-12-14T21:37:33.379Z,43.27
2022-12-14T21:40:02.995Z,43.83
2022-12-14T21:42:29.645Z,42.10
2022-12-14T21:44:56.699Z,36.07
2022-12-14T21:47:26.526Z,35.57
2022-12-14T21:49:54.106Z,41.40
2022-12-14T21:52:23.808Z,38.87
2022-12-14T21:54:50.542Z,39.13
2022-12-14T21:57:40.101Z,39.40
2022-12-14T22:00:08.633Z,35.20
2022-12-14T22:02:42.286Z,42.23
2022-12-14T22:05:10.379Z,31.97
2022-12-14T22:07:36.949Z,31.33
2022-12-14T22:10:03.948Z,34.23
2022-12-14T22:12:30.620Z,31.27
2022-12-14T22:14:57.282Z,18.70
2022-12-14T22:17:23.850Z,18.20
2022-12-14T22:19:52.001Z,13.67
2022-12-14T22:22:18.584Z,15.70
2022-12-14T22:24:48.228Z,19.00
2022-12-14T22:27:14.916Z,23.67
2022-12-14T22:29:41.515Z,17.57
2022-12-14T22:32:09.798Z,15.93
2022-12-14T22:34:36.910Z,14.90
2022-12-14T22:37:03.750Z,12.37
2022-12-14T22:39:30.807Z,12.00
2022-12-14T22:41:57.660Z,13.87
2022-12-14T22:44:24.243Z,13.20
2022-12-14T22:46:51.004Z,11.50
2022-12-14T22:49:19.163Z,13.43
2022-12-14T22:51:46.061Z,13.70
2022-12-14T22:54:18.445Z,17.27
2022-12-14T22:56:50.272Z,20.00
2022-12-14T22:59:37.696Z,17.00
2022-12-14T23:02:05.008Z,16.23
2022-12-14T23:04:31.758Z,12.77
2022-12-14T23:06:58.501Z,18.10
2022-12-14T23:09:43.690Z,12.73
2022-12-14T23:12:29.014Z,17.97
2022-12-14T23:15:14.779Z,16.53
2022-12-14T23:18:00.175Z,17.70
2022-12-14T23:20:46.052Z,18.00
2022-12-14T23:23:31.600Z,13.73
2022-12-14T23:26:21.502Z,19.10
2022-12-14T23:29:06.786Z,15.73
2022-12-14T23:31:51.779Z,15.30
2022-12-14T23:34:36.987Z,11.87
2022-12-14T23:37:22.383Z,10.73
2022-12-14T23:40:07.764Z,13.53
2022-12-14T23:42:53.157Z,11.33
2022-12-14T23:45:38.342Z,12.90
2022-12-14T23:48:23.565Z,15.03
2022-12-14T23:51:09.242Z,13.60
2022-12-14T23:53:54.511Z,12.93
2022-12-14T23:56:39.795Z,13.00
2022-12-14T23:59:31.633Z,18.20
